Terminal Aerodrome Forecast
Issued by NWS

Home | Current Version | Previous Version | Text Only | Print | Product List | Glossary On
Versions: 1 2 3 4 5 6 7 8 9 10 11 12 13 14 15 16 17 18 19 20 21 22 23 24 25 26 27 28 29 30 31 32 33 34 35 36 37 38 39 40
000
FTUS43 KGRB 232336
TAFRHI
TAF
KRHI 232336Z 2400/2424 30009G15KT P6SM SCT030 BKN050
     FM240400 30005KT P6SM SCT025 BKN035
     FM240900 30006KT P6SM BKN030
     FM241200 30006KT P6SM BKN015
     FM241500 29007KT P6SM BKN020 PROB30 2416/2418 4SM -SHRA OVC007
     FM241800 29012G16KT P6SM -SHRA BKN025=

USA.gov is the U.S. government's official web portal to all federal, state and local government web resources and services.